Airfield :
LOGIN :

Register | Disclaimer

   EN    FR    IT 

 










Legend :    VFR   Marginal VFR   IFR   Intensive IFR   Very Intensive IFR
Visi :
Ceiling :
>= 8 km
>= 3000ft
5 to 8 km
1000 to 3000 ft
1500m to 5 km
500 to 1000 ft
800 to 1500m
200 to 500 ft
< 800m
< 200 ft
Symbols :   Thunderstorms  Fog  Heavy snow  Heavy precipitations  Wind > 20 kt
SIGMETs :     Misc.  Thunderstorms  Icing  Turbulence  Mountain Waves  Volcanic Ashes







- Airport Elevation : 856 ft
- IATA code : VGO


LEVX - Vigo Peinador

CURRENT METAR :
  • 231900Z 27005KT 230V300 CAVOK 21/17 Q1018 NOSIG

EXPIRED METARs :
  • 231830Z 26006KT CAVOK 22/16 Q1018 NOSIG
  • 231800Z 27006KT 220V290 CAVOK 22/17 Q1018 NOSIG
  • 231730Z VRB07KT CAVOK 23/16 Q1018 NOSIG
  • 231700Z 27009KT 220V300 CAVOK 24/16 Q1018 NOSIG
  • 231630Z 28007KT 240V330 CAVOK 26/16 Q1018 NOSIG

TAF TAF LEVX
Valid from the 23 at 18:00 until the 24 at 18:00 UTC


231700Z 2318/2418 27007KT CAVOK TX24/2318Z TN15/2406Z
PROB40
TEMPO 2400/2407 1500 BCFG
PROB40
TEMPO 2402/2407 0350 FG VV001
No reported NOTAMs for that airfield.



MET'MAP, your aeronautical weather chart ! - Copyright ORBIFLY December 2007 - Disclaimer

ORBIFLY MET'MAP TEAM :

Programming & Development : Alexandra Zaïnal
Concept & Development : Baudouin d'Aumeries
Co-Development & Prog : Marc-Olivier Méhu
Technical & hardware support : Manuel Goepfert

Contact : metmap@orbifly.com




SOURCES & CREDITS :

   NOAA